createdAt,value
2019-04-25T00:00:11.710Z,11.11
2019-04-25T00:01:11.553Z,11.08
2019-04-25T00:02:11.505Z,10.97
2019-04-25T00:03:12.240Z,10.96
2019-04-25T00:04:11.734Z,10.97
2019-04-25T00:05:11.221Z,10.93
2019-04-25T00:06:12.143Z,11.07
2019-04-25T00:07:11.913Z,11.05
2019-04-25T00:08:11.491Z,11.00
2019-04-25T00:09:11.949Z,10.99
2019-04-25T00:10:11.712Z,11.08
2019-04-25T00:11:11.677Z,11.08
2019-04-25T00:12:11.909Z,11.05
2019-04-25T00:13:11.746Z,11.07
2019-04-25T00:14:11.308Z,11.08
2019-04-25T00:15:11.096Z,11.05
2019-04-25T00:16:11.604Z,11.02
2019-04-25T00:17:11.371Z,10.97
2019-04-25T00:18:11.897Z,10.97
2019-04-25T00:19:11.683Z,10.96
2019-04-25T00:20:11.380Z,10.99
2019-04-25T00:21:10.257Z,11.02
2019-04-25T00:22:11.695Z,10.93
2019-04-25T00:23:11.685Z,10.93
2019-04-25T00:24:10.223Z,11.02
2019-04-25T00:25:17.119Z,10.99
2019-04-25T00:26:11.270Z,10.97
2019-04-25T00:27:10.027Z,10.99
2019-04-25T00:28:11.386Z,10.93
2019-04-25T00:29:09.946Z,10.93
2019-04-25T00:30:11.241Z,10.90
2019-04-25T00:31:09.872Z,10.86
2019-04-25T00:32:11.607Z,10.93
2019-04-25T00:33:09.790Z,10.79
2019-04-25T00:34:09.750Z,10.93
2019-04-25T00:35:09.719Z,10.94
2019-04-25T00:36:09.676Z,10.92
2019-04-25T00:37:09.639Z,11.02
2019-04-25T00:38:09.600Z,11.04
2019-04-25T00:39:09.562Z,11.00
2019-04-25T00:40:09.524Z,11.00
2019-04-25T00:41:09.482Z,11.10
2019-04-25T00:42:09.439Z,11.18
2019-04-25T00:43:09.401Z,11.19
2019-04-25T00:44:09.362Z,11.25
2019-04-25T00:45:09.327Z,11.33
2019-04-25T00:46:09.289Z,11.33
2019-04-25T00:47:09.246Z,11.32
2019-04-25T00:48:09.211Z,11.35
2019-04-25T00:49:09.171Z,11.23
2019-04-25T00:50:09.134Z,11.22
2019-04-25T00:51:09.096Z,11.30
2019-04-25T00:52:09.056Z,11.25
2019-04-25T00:53:09.017Z,11.37
2019-04-25T00:54:08.972Z,11.25
2019-04-25T00:55:08.935Z,11.22
2019-04-25T00:56:08.898Z,11.15
2019-04-25T00:57:08.861Z,11.07
2019-04-25T00:58:08.827Z,11.02
2019-04-25T00:59:08.786Z,11.07
2019-04-25T01:00:08.746Z,11.10
2019-04-25T01:01:08.706Z,11.15
2019-04-25T01:02:08.676Z,11.26
2019-04-25T01:03:08.629Z,11.12
2019-04-25T01:04:08.590Z,11.15
2019-04-25T01:05:08.548Z,11.25
2019-04-25T01:06:08.506Z,11.25
2019-04-25T01:07:08.470Z,11.23
2019-04-25T01:08:08.432Z,11.33
2019-04-25T01:09:08.395Z,11.35
2019-04-25T01:10:08.362Z,11.30
2019-04-25T01:11:08.318Z,11.40
2019-04-25T01:12:08.278Z,11.32
2019-04-25T01:13:08.247Z,11.25
2019-04-25T01:14:08.196Z,11.18
2019-04-25T01:15:08.158Z,11.19
2019-04-25T01:16:08.120Z,11.19
2019-04-25T01:17:08.083Z,11.22
2019-04-25T01:18:08.049Z,11.17
2019-04-25T01:19:08.001Z,11.19
2019-04-25T01:20:07.965Z,11.27
2019-04-25T01:21:07.929Z,11.22
2019-04-25T01:22:07.890Z,11.23
2019-04-25T01:23:07.852Z,11.17
2019-04-25T01:24:07.812Z,11.17
2019-04-25T01:25:07.770Z,11.18
2019-04-25T01:26:07.728Z,11.14
2019-04-25T01:27:07.689Z,11.15
2019-04-25T01:28:07.654Z,11.17
2019-04-25T01:29:07.616Z,11.10
2019-04-25T01:30:07.582Z,11.00
2019-04-25T01:31:07.541Z,10.97
2019-04-25T01:32:07.503Z,11.04
2019-04-25T01:33:07.472Z,10.99
2019-04-25T01:34:07.420Z,11.11
2019-04-25T01:35:07.384Z,11.10
2019-04-25T01:36:07.345Z,11.05
2019-04-25T01:37:07.305Z,11.07
2019-04-25T01:38:07.261Z,10.94
2019-04-25T01:39:07.223Z,10.96
2019-04-25T01:40:07.188Z,10.99
2019-04-25T01:41:07.150Z,10.92
2019-04-25T01:42:07.111Z,10.92
2019-04-25T01:43:07.077Z,10.92
2019-04-25T01:44:07.032Z,10.82
2019-04-25T01:45:06.992Z,10.93
2019-04-25T01:46:06.949Z,10.93
2019-04-25T01:47:06.912Z,10.86
2019-04-25T01:48:06.875Z,10.84
2019-04-25T01:49:06.840Z,10.87
2019-04-25T01:50:06.805Z,10.81
2019-04-25T01:51:06.756Z,10.89
2019-04-25T01:52:06.719Z,10.92
2019-04-25T01:53:06.681Z,10.87
2019-04-25T01:54:06.646Z,10.97
2019-04-25T01:55:06.604Z,10.94
2019-04-25T01:56:07.869Z,10.96
2019-04-25T01:57:06.523Z,10.96
2019-04-25T01:58:06.482Z,10.97
2019-04-25T01:59:06.443Z,10.97
2019-04-25T02:00:06.407Z,10.97
2019-04-25T02:01:06.429Z,10.97
2019-04-25T02:02:06.701Z,10.97
2019-04-25T02:03:06.292Z,10.93
2019-04-25T02:04:06.251Z,10.99
2019-04-25T02:05:06.212Z,11.02
2019-04-25T02:06:06.170Z,10.92
2019-04-25T02:07:06.138Z,10.90
2019-04-25T02:08:07.029Z,10.90
2019-04-25T02:09:06.055Z,10.81
2019-04-25T02:10:06.022Z,10.79
2019-04-25T02:11:05.982Z,10.84
2019-04-25T02:12:05.942Z,10.78
2019-04-25T02:13:05.902Z,10.84
2019-04-25T02:14:05.862Z,10.78
2019-04-25T02:15:06.257Z,10.74
2019-04-25T02:16:05.784Z,10.69
2019-04-25T02:17:05.743Z,10.82
2019-04-25T02:18:05.702Z,10.79
2019-04-25T02:19:05.665Z,10.79
2019-04-25T02:20:05.628Z,10.86
2019-04-25T02:21:05.589Z,10.79
2019-04-25T02:22:05.550Z,10.81
2019-04-25T02:23:05.505Z,10.75
2019-04-25T02:24:05.683Z,10.81
2019-04-25T02:25:05.435Z,10.78
2019-04-25T02:26:15.169Z,10.75
2019-04-25T02:27:05.355Z,10.75
2019-04-25T02:28:05.671Z,10.76
2019-04-25T02:29:05.273Z,10.78
2019-04-25T02:30:06.878Z,10.86
2019-04-25T02:31:08.611Z,10.87
2019-04-25T02:32:08.854Z,10.75
2019-04-25T02:33:08.812Z,10.76
2019-04-25T02:34:08.339Z,10.69
2019-04-25T02:35:09.125Z,10.56
2019-04-25T02:36:08.595Z,10.60
2019-04-25T02:37:09.152Z,10.64
2019-04-25T02:38:08.680Z,10.67
2019-04-25T02:39:08.822Z,10.54
2019-04-25T02:40:07.927Z,10.69
2019-04-25T02:41:08.432Z,10.61
2019-04-25T02:42:07.853Z,10.61
2019-04-25T02:43:07.934Z,10.60
2019-04-25T02:44:09.446Z,10.57
2019-04-25T02:45:08.397Z,10.57
2019-04-25T02:46:07.435Z,10.60
2019-04-25T02:47:06.896Z,10.53
2019-04-25T02:48:05.694Z,10.54
2019-04-25T02:49:09.205Z,10.56
2019-04-25T02:50:07.579Z,10.48
2019-04-25T02:51:06.161Z,10.51
2019-04-25T02:52:08.532Z,10.42
2019-04-25T02:53:06.137Z,10.44
2019-04-25T02:54:06.746Z,10.49
2019-04-25T02:55:10.123Z,10.41
2019-04-25T02:56:07.968Z,10.46
2019-04-25T02:57:06.497Z,10.56
2019-04-25T02:58:08.129Z,10.41
2019-04-25T02:59:07.055Z,10.41
2019-04-25T03:00:07.364Z,10.42
2019-04-25T03:01:17.380Z,10.37
2019-04-25T03:02:05.819Z,10.48
2019-04-25T03:03:06.875Z,10.41
2019-04-25T03:04:07.452Z,10.40
2019-04-25T03:05:06.622Z,10.42
2019-04-25T03:06:06.033Z,10.28
2019-04-25T03:07:08.114Z,10.28
2019-04-25T03:08:07.959Z,10.31
2019-04-25T03:09:05.687Z,10.26
2019-04-25T03:10:06.219Z,10.30
2019-04-25T03:11:05.819Z,10.26
2019-04-25T03:12:06.110Z,10.31
2019-04-25T03:13:07.978Z,10.35
2019-04-25T03:14:06.630Z,10.33
2019-04-25T03:15:06.700Z,10.41
2019-04-25T03:16:06.108Z,10.41
2019-04-25T03:17:05.241Z,10.38
2019-04-25T03:18:05.651Z,10.38
2019-04-25T03:19:05.110Z,10.41
2019-04-25T03:20:06.676Z,10.42
2019-04-25T03:21:05.408Z,10.37
2019-04-25T03:22:06.797Z,10.41
2019-04-25T03:37:27.914Z,10.37
2019-04-25T03:38:27.841Z,10.38
2019-04-25T03:39:27.795Z,10.40
2019-04-25T03:40:27.751Z,10.28
2019-04-25T03:41:27.712Z,10.38
2019-04-25T03:42:27.673Z,10.31
2019-04-25T03:43:27.628Z,10.40
2019-04-25T03:44:27.587Z,10.38
2019-04-25T03:45:27.540Z,10.41
2019-04-25T03:46:27.503Z,10.26
2019-04-25T03:47:27.461Z,10.35
2019-04-25T03:48:27.418Z,10.40
2019-04-25T03:49:27.382Z,10.33
2019-04-25T03:50:27.342Z,10.33
2019-04-25T03:51:27.300Z,10.31
2019-04-25T03:52:27.261Z,10.41
2019-04-25T03:53:27.221Z,10.40
2019-04-25T03:54:27.178Z,10.46
2019-04-25T03:55:27.142Z,10.44
2019-04-25T03:56:27.102Z,10.42
2019-04-25T03:57:27.060Z,10.37
2019-04-25T03:58:27.019Z,10.38
2019-04-25T03:59:26.982Z,10.38
2019-04-25T04:00:26.938Z,10.33
2019-04-25T04:01:26.903Z,10.37
2019-04-25T04:02:26.862Z,10.35
2019-04-25T04:03:26.822Z,10.35
2019-04-25T04:04:26.785Z,10.33
2019-04-25T04:05:26.742Z,10.22
2019-04-25T04:06:26.701Z,10.22
2019-04-25T04:07:26.684Z,10.30
2019-04-25T04:08:26.621Z,10.35
2019-04-25T04:09:26.588Z,10.34
2019-04-25T04:10:26.545Z,10.28
2019-04-25T04:11:26.504Z,10.22
2019-04-25T04:12:26.462Z,10.26
2019-04-25T04:13:26.430Z,10.30
2019-04-25T04:14:26.385Z,10.31
2019-04-25T04:15:26.347Z,10.35
2019-04-25T04:16:26.310Z,10.37
2019-04-25T04:17:26.266Z,10.40
2019-04-25T04:18:27.061Z,10.41
2019-04-25T04:19:26.189Z,10.38
2019-04-25T04:20:26.146Z,10.42
2019-04-25T04:21:26.114Z,10.40
2019-04-25T04:22:26.072Z,10.46
2019-04-25T04:23:26.032Z,10.48
2019-04-25T04:24:25.994Z,10.46
2019-04-25T04:25:25.949Z,10.44
2019-04-25T04:26:25.912Z,10.46
2019-04-25T04:27:25.876Z,10.37
2019-04-25T04:28:25.837Z,10.49
2019-04-25T04:29:25.795Z,10.41
2019-04-25T04:30:25.757Z,10.51
2019-04-25T04:31:25.715Z,10.48
2019-04-25T04:32:25.675Z,10.54
2019-04-25T04:33:31.911Z,10.60
2019-04-25T04:34:25.605Z,10.67
2019-04-25T04:35:25.560Z,10.67
2019-04-25T04:36:25.522Z,10.61
2019-04-25T04:37:25.477Z,10.61
2019-04-25T04:38:25.458Z,10.61
2019-04-25T04:39:25.406Z,10.53
2019-04-25T04:40:25.359Z,10.56
2019-04-25T04:41:25.330Z,10.57
2019-04-25T04:42:25.288Z,10.59
2019-04-25T04:43:25.648Z,10.68
2019-04-25T04:44:25.203Z,10.63
2019-04-25T04:45:25.192Z,10.72
2019-04-25T04:46:25.128Z,10.74
2019-04-25T04:47:25.090Z,10.84
2019-04-25T04:48:25.050Z,10.82
2019-04-25T04:49:25.007Z,10.79
2019-04-25T04:50:25.369Z,10.90
2019-04-25T04:51:24.933Z,10.89
2019-04-25T04:52:25.795Z,10.94
2019-04-25T04:53:24.856Z,10.90
2019-04-25T04:54:24.814Z,11.08
2019-04-25T04:55:24.779Z,10.92
2019-04-25T04:56:25.743Z,11.11
2019-04-25T04:57:31.906Z,11.07
2019-04-25T04:58:25.113Z,11.11
2019-04-25T04:59:24.893Z,11.22
2019-04-25T05:00:24.662Z,11.12
2019-04-25T05:01:24.734Z,11.17
2019-04-25T05:02:24.515Z,11.15
2019-04-25T05:03:26.606Z,11.18
2019-04-25T05:04:25.222Z,11.15
2019-04-25T05:05:24.801Z,11.08
2019-04-25T05:06:25.169Z,11.12
2019-04-25T05:07:25.328Z,11.12
2019-04-25T05:08:24.978Z,10.96
2019-04-25T05:09:24.231Z,11.07
2019-04-25T05:10:24.639Z,10.97
2019-04-25T05:11:25.506Z,10.89
2019-04-25T05:12:24.141Z,10.86
2019-04-25T05:13:24.291Z,10.72
2019-04-25T05:14:26.557Z,10.71
2019-04-25T05:15:24.754Z,10.72
2019-04-25T05:16:23.956Z,10.64
2019-04-25T05:17:25.383Z,10.71
2019-04-25T05:18:34.632Z,10.64
2019-04-25T05:19:23.937Z,10.87
2019-04-25T05:20:24.168Z,10.82
2019-04-25T05:21:25.025Z,10.84
2019-04-25T05:22:24.342Z,10.82
2019-04-25T05:23:24.896Z,10.96
2019-04-25T05:24:26.095Z,11.04
2019-04-25T05:25:24.556Z,10.96
2019-04-25T05:26:25.087Z,10.99
2019-04-25T05:27:35.820Z,11.05
2019-04-25T05:28:24.576Z,11.00
2019-04-25T05:29:26.290Z,11.00
2019-04-25T05:30:26.340Z,11.08
2019-04-25T05:31:25.411Z,10.97
2019-04-25T05:32:25.121Z,11.14
2019-04-25T05:33:24.303Z,11.10
2019-04-25T05:34:25.628Z,10.92
2019-04-25T05:35:24.305Z,10.97
2019-04-25T05:36:23.890Z,11.05
2019-04-25T05:37:24.112Z,10.97
2019-04-25T05:38:24.358Z,10.96
2019-04-25T05:39:24.028Z,11.00
2019-04-25T05:40:24.445Z,11.08
2019-04-25T05:41:24.154Z,11.17
2019-04-25T05:42:24.511Z,11.18
2019-04-25T05:43:24.454Z,11.22
2019-04-25T05:44:24.499Z,11.22
2019-04-25T05:45:23.839Z,11.18
2019-04-25T05:46:23.702Z,11.14
2019-04-25T05:47:25.641Z,11.12
2019-04-25T05:48:24.714Z,11.19
2019-04-25T05:49:24.255Z,11.19
2019-04-25T05:50:24.034Z,11.19
2019-04-25T05:51:23.921Z,11.40
2019-04-25T05:52:23.988Z,11.36
2019-04-25T05:53:23.853Z,11.45
2019-04-25T05:54:23.103Z,11.41
2019-04-25T05:55:23.884Z,11.44
2019-04-25T05:56:24.045Z,11.47
2019-04-25T05:57:23.588Z,11.48
2019-04-25T05:58:22.961Z,11.51
2019-04-25T05:59:22.295Z,11.40
2019-04-25T06:00:24.585Z,11.50
2019-04-25T06:01:22.846Z,11.47
2019-04-25T06:02:22.176Z,11.52
2019-04-25T06:03:23.402Z,11.50
2019-04-25T06:04:23.827Z,11.52
2019-04-25T06:05:23.395Z,11.60
2019-04-25T06:06:23.657Z,11.55
2019-04-25T06:07:21.985Z,11.50
2019-04-25T06:08:21.942Z,11.55
2019-04-25T06:09:21.928Z,11.59
2019-04-25T06:10:21.873Z,11.55
2019-04-25T06:11:23.546Z,11.51
2019-04-25T06:12:23.404Z,11.55
2019-04-25T06:13:23.666Z,11.62
2019-04-25T06:14:22.204Z,11.57
2019-04-25T06:15:22.301Z,11.63
2019-04-25T06:16:23.655Z,11.63
2019-04-25T06:17:21.603Z,11.62
2019-04-25T06:18:21.561Z,11.60
2019-04-25T06:19:22.558Z,11.63
2019-04-25T06:20:21.590Z,11.69
2019-04-25T06:21:21.945Z,11.84
2019-04-25T06:22:21.407Z,11.77
2019-04-25T06:23:21.368Z,11.86
2019-04-25T06:24:21.333Z,11.86
2019-04-25T06:25:23.093Z,11.88
2019-04-25T06:26:32.758Z,12.00
2019-04-25T06:27:22.016Z,11.97
2019-04-25T06:28:21.731Z,12.12
2019-04-25T06:29:21.818Z,12.12
2019-04-25T06:30:21.102Z,12.20
2019-04-25T06:31:21.411Z,12.25
2019-04-25T06:32:21.525Z,12.39
2019-04-25T06:33:21.332Z,12.37
2019-04-25T06:34:21.382Z,12.42
2019-04-25T06:35:21.241Z,12.46
2019-04-25T06:36:21.102Z,12.45
2019-04-25T06:37:21.350Z,12.43
2019-04-25T06:38:21.352Z,12.43
2019-04-25T06:39:21.953Z,12.47
2019-04-25T06:40:20.714Z,12.49
2019-04-25T06:41:21.089Z,12.43
2019-04-25T06:42:21.146Z,12.45
2019-04-25T06:43:21.819Z,12.47
2019-04-25T06:44:20.737Z,12.55
2019-04-25T06:45:21.359Z,12.42
2019-04-25T06:46:21.023Z,12.46
2019-04-25T06:47:21.115Z,12.46
2019-04-25T06:48:21.211Z,12.47
2019-04-25T06:49:20.372Z,12.46
2019-04-25T06:50:20.519Z,12.55
2019-04-25T06:51:20.293Z,12.57
2019-04-25T06:52:21.526Z,12.45
2019-04-25T06:53:20.221Z,12.61
2019-04-25T06:54:21.007Z,12.58
2019-04-25T06:55:21.903Z,12.58
2019-04-25T06:56:20.107Z,12.55
2019-04-25T06:57:20.065Z,12.65
2019-04-25T06:58:20.026Z,12.70
2019-04-25T06:59:19.990Z,12.57
2019-04-25T07:00:19.951Z,12.61
2019-04-25T07:01:19.918Z,12.62
2019-04-25T07:02:19.880Z,12.72
2019-04-25T07:03:19.843Z,12.65
2019-04-25T07:04:19.802Z,12.70
2019-04-25T07:05:30.579Z,12.72
2019-04-25T07:06:19.723Z,12.64
2019-04-25T07:07:19.690Z,12.67
2019-04-25T07:08:19.651Z,12.75
2019-04-25T07:09:19.612Z,12.76
2019-04-25T07:10:19.572Z,12.85
2019-04-25T07:11:19.533Z,12.90
2019-04-25T07:12:19.497Z,13.19
2019-04-25T07:13:19.460Z,13.31
2019-04-25T07:14:19.423Z,13.35
2019-04-25T07:15:19.388Z,13.38
2019-04-25T07:16:19.346Z,13.52
2019-04-25T07:17:19.307Z,13.54
2019-04-25T07:18:19.270Z,13.70
2019-04-25T07:19:19.229Z,13.62
2019-04-25T07:20:19.194Z,13.56
2019-04-25T07:21:19.160Z,13.67
2019-04-25T07:22:19.126Z,13.70
2019-04-25T07:23:19.080Z,13.67
2019-04-25T07:24:27.709Z,13.60
2019-04-25T07:26:25.038Z,13.68
2019-04-25T07:27:24.567Z,13.63
2019-04-25T07:28:27.135Z,13.62
2019-04-25T07:29:24.821Z,13.49
2019-04-25T07:30:31.229Z,13.49
2019-04-25T07:31:24.167Z,13.42
2019-04-25T07:32:24.612Z,13.41
2019-04-25T07:33:23.330Z,13.31
2019-04-25T07:34:25.012Z,13.38
2019-04-25T07:35:23.341Z,13.46
2019-04-25T07:36:23.315Z,13.56
2019-04-25T07:37:24.238Z,13.62
2019-04-25T07:38:23.759Z,13.70
2019-04-25T07:39:23.591Z,13.72
2019-04-25T07:40:23.674Z,13.78
2019-04-25T07:41:24.209Z,13.77
2019-04-25T07:42:23.912Z,13.90
2019-04-25T07:43:23.342Z,13.92
2019-04-25T07:44:35.293Z,13.87
2019-04-25T07:45:23.945Z,13.89
2019-04-25T07:46:23.400Z,13.97
2019-04-25T07:47:24.173Z,13.92
2019-04-25T07:48:23.243Z,13.96
2019-04-25T07:49:23.475Z,13.83
2019-04-25T07:50:23.771Z,13.75
2019-04-25T07:51:23.695Z,13.78
2019-04-25T07:52:23.394Z,13.67
2019-04-25T07:53:24.039Z,13.75
2019-04-25T07:54:24.001Z,13.71
2019-04-25T07:55:23.376Z,13.70
2019-04-25T07:56:24.055Z,13.86
2019-04-25T07:57:23.757Z,13.92
2019-04-25T07:58:34.081Z,13.92
2019-04-25T07:59:23.614Z,14.03
2019-04-25T08:00:23.887Z,14.08
2019-04-25T08:01:23.539Z,14.14
2019-04-25T08:02:23.316Z,14.22
2019-04-25T08:03:23.661Z,14.25
2019-04-25T08:04:23.539Z,14.28
2019-04-25T08:05:21.983Z,14.30
2019-04-25T08:06:22.619Z,14.30
2019-04-25T08:07:21.905Z,14.23
2019-04-25T08:08:23.430Z,14.26
2019-04-25T08:09:21.830Z,14.22
2019-04-25T08:10:21.799Z,14.29
2019-04-25T08:11:21.761Z,14.32
2019-04-25T08:12:21.723Z,14.29
2019-04-25T08:13:23.346Z,14.25
2019-04-25T08:14:21.646Z,14.29
2019-04-25T08:15:21.609Z,14.18
2019-04-25T08:16:23.245Z,14.22
2019-04-25T08:17:21.542Z,14.22
2019-04-25T08:18:23.865Z,14.25
2019-04-25T08:19:21.465Z,14.15
2019-04-25T08:20:21.426Z,14.10
2019-04-25T08:21:21.388Z,14.17
2019-04-25T08:22:21.357Z,14.22
2019-04-25T08:23:21.319Z,14.29
2019-04-25T08:24:21.281Z,14.33
2019-04-25T08:25:21.249Z,14.28
2019-04-25T08:26:21.205Z,14.30
2019-04-25T08:27:21.168Z,14.29
2019-04-25T08:28:21.132Z,14.36
2019-04-25T08:29:22.963Z,14.36
2019-04-25T08:30:21.064Z,14.33
2019-04-25T08:31:21.025Z,14.40
2019-04-25T08:32:20.985Z,14.40
2019-04-25T08:33:20.945Z,14.41
2019-04-25T08:34:20.917Z,14.41
2019-04-25T08:35:20.875Z,14.33
2019-04-25T08:36:20.839Z,14.37
2019-04-25T08:37:21.115Z,14.51
2019-04-25T08:38:20.763Z,14.45
2019-04-25T08:39:20.732Z,14.51
2019-04-25T08:40:20.691Z,14.51
2019-04-25T08:41:21.686Z,14.65
2019-04-25T08:42:20.619Z,14.65
2019-04-25T08:43:20.588Z,14.66
2019-04-25T08:44:20.545Z,14.58
2019-04-25T08:45:20.512Z,14.70
2019-04-25T08:46:20.468Z,14.85
2019-04-25T08:47:20.433Z,14.86
2019-04-25T08:48:20.398Z,15.03
2019-04-25T08:49:20.363Z,15.10
2019-04-25T08:50:28.779Z,15.25
2019-04-25T08:51:20.303Z,15.28
2019-04-25T08:52:20.252Z,15.36
2019-04-25T08:53:20.218Z,15.44
2019-04-25T08:54:20.183Z,15.36
2019-04-25T08:55:20.142Z,15.44
2019-04-25T08:56:20.107Z,15.40
2019-04-25T08:57:20.071Z,15.54
2019-04-25T08:58:20.030Z,15.46
2019-04-25T08:59:32.179Z,15.43
2019-04-25T09:00:19.958Z,15.46
2019-04-25T09:01:19.921Z,15.44
2019-04-25T09:02:19.890Z,15.59
2019-04-25T09:03:19.851Z,15.79
2019-04-25T09:04:19.814Z,15.91
2019-04-25T09:05:19.776Z,16.00
2019-04-25T09:06:19.783Z,16.02
2019-04-25T09:07:19.708Z,16.08
2019-04-25T09:08:19.672Z,16.13
2019-04-25T09:09:19.638Z,16.12
2019-04-25T09:10:19.600Z,16.12
2019-04-25T09:11:19.562Z,16.05
2019-04-25T09:12:19.526Z,16.00
2019-04-25T09:13:19.489Z,16.00
2019-04-25T09:14:19.459Z,15.98
2019-04-25T09:15:19.425Z,15.90
2019-04-25T09:16:19.386Z,15.84
2019-04-25T09:17:19.351Z,15.79
2019-04-25T09:18:19.310Z,15.95
2019-04-25T09:19:19.276Z,16.09
2019-04-25T09:20:19.242Z,16.21
2019-04-25T09:21:19.209Z,16.20
2019-04-25T09:22:19.168Z,16.31
2019-04-25T09:23:19.134Z,16.33
2019-04-25T09:24:19.099Z,16.49
2019-04-25T09:25:19.063Z,16.50
2019-04-25T09:26:19.032Z,16.58
2019-04-25T09:27:18.993Z,16.56
2019-04-25T09:28:18.959Z,16.54
2019-04-25T09:29:19.946Z,16.61
2019-04-25T09:30:18.884Z,16.65
2019-04-25T09:31:18.850Z,16.64
2019-04-25T09:32:18.816Z,16.64
2019-04-25T09:33:18.778Z,16.79
2019-04-25T09:34:18.751Z,16.87
2019-04-25T09:35:20.165Z,16.87
2019-04-25T09:36:18.680Z,16.94
2019-04-25T09:37:18.639Z,16.87
2019-04-25T09:50:54.548Z,16.93
2019-04-25T09:51:54.482Z,17.09
2019-04-25T09:52:54.446Z,17.04
2019-04-25T09:53:54.528Z,17.05
2019-04-25T09:54:54.353Z,17.04
2019-04-25T09:55:54.332Z,17.09
2019-04-25T09:56:55.340Z,17.05
2019-04-25T09:57:54.246Z,17.05
2019-04-25T09:58:54.206Z,17.06
2019-04-25T09:59:54.168Z,17.14
2019-04-25T10:00:54.128Z,17.12
2019-04-25T10:01:54.090Z,17.19
2019-04-25T10:02:55.467Z,17.26
2019-04-25T10:03:54.376Z,17.30
2019-04-25T10:04:55.172Z,17.31
2019-04-25T10:05:53.946Z,17.34
2019-04-25T10:06:53.910Z,17.41
2019-04-25T10:07:53.877Z,17.41
2019-04-25T10:08:54.276Z,17.39
2019-04-25T10:09:54.753Z,17.42
2019-04-25T10:10:55.333Z,17.44
2019-04-25T10:11:54.641Z,17.51
2019-04-25T10:12:54.899Z,17.52
2019-04-25T10:13:53.659Z,17.59
2019-04-25T10:14:54.267Z,17.64
2019-04-25T10:15:54.580Z,17.63
2019-04-25T10:16:53.883Z,17.60
2019-04-25T10:17:53.524Z,17.63
2019-04-25T10:18:53.484Z,17.64
2019-04-25T10:19:53.451Z,17.64
2019-04-25T10:20:54.226Z,17.57
2019-04-25T10:21:53.895Z,17.63
2019-04-25T10:22:54.008Z,17.70
2019-04-25T10:23:53.515Z,17.87
2019-04-25T10:25:00.337Z,18.01
2019-04-25T10:25:53.787Z,18.19
2019-04-25T10:26:54.656Z,18.31
2019-04-25T10:27:53.785Z,18.41
2019-04-25T10:28:53.137Z,18.44
2019-04-25T10:29:55.089Z,18.43
2019-04-25T10:30:55.248Z,18.50
2019-04-25T10:31:55.456Z,18.52
2019-04-25T10:32:54.645Z,18.60
2019-04-25T10:33:53.520Z,18.55
2019-04-25T10:34:52.934Z,18.53
2019-04-25T10:35:58.841Z,18.52
2019-04-25T10:36:53.281Z,18.43
2019-04-25T10:37:53.704Z,18.49
2019-04-25T10:39:06.705Z,18.53
2019-04-25T10:39:55.269Z,18.60
2019-04-25T10:40:53.588Z,18.58
2019-04-25T10:41:54.042Z,18.70
2019-04-25T10:42:53.366Z,18.58
2019-04-25T10:43:54.601Z,18.60
2019-04-25T10:44:56.398Z,18.62
2019-04-25T10:45:53.377Z,18.65
2019-04-25T10:46:52.930Z,18.70
2019-04-25T10:47:53.332Z,18.74
2019-04-25T10:48:54.095Z,18.81
2019-04-25T10:49:55.251Z,18.84
2019-04-25T10:50:55.330Z,18.90
2019-04-25T10:51:52.426Z,19.00
2019-04-25T10:52:52.770Z,19.02
2019-04-25T10:53:53.586Z,19.08
2019-04-25T10:54:53.897Z,19.07
2019-04-25T10:55:52.222Z,19.11
2019-04-25T10:56:52.302Z,19.07
2019-04-25T10:57:53.494Z,19.15
2019-04-25T10:58:53.281Z,19.26
2019-04-25T11:00:00.700Z,19.39
2019-04-25T11:00:52.826Z,19.40
2019-04-25T11:01:53.550Z,19.41
2019-04-25T11:02:53.806Z,19.44
2019-04-25T11:03:51.945Z,19.49
2019-04-25T11:04:51.909Z,19.48
2019-04-25T11:05:53.938Z,19.54
2019-04-25T11:06:51.843Z,19.55
2019-04-25T11:07:54.087Z,19.47
2019-04-25T11:08:51.776Z,19.44
2019-04-25T11:09:51.737Z,19.49
2019-04-25T11:10:51.702Z,19.24
2019-04-25T11:11:52.374Z,19.27
2019-04-25T11:12:51.641Z,19.30
2019-04-25T11:13:52.397Z,19.39
2019-04-25T11:14:51.577Z,19.33
2019-04-25T11:15:52.002Z,19.39
2019-04-25T11:16:51.505Z,19.45
2019-04-25T11:17:51.474Z,19.34
2019-04-25T11:18:51.436Z,19.29
2019-04-25T11:19:51.409Z,19.26
2019-04-25T11:20:51.373Z,19.29
2019-04-25T11:21:51.769Z,19.18
2019-04-25T11:22:51.770Z,19.41
2019-04-25T11:23:51.276Z,19.33
2019-04-25T11:24:51.238Z,19.54
2019-04-25T11:25:51.208Z,19.51
2019-04-25T11:26:51.518Z,19.52
2019-04-25T11:27:52.025Z,19.52
2019-04-25T11:28:51.116Z,19.62
2019-04-25T11:29:51.069Z,19.52
2019-04-25T11:30:51.036Z,19.59
2019-04-25T11:31:51.000Z,19.70
2019-04-25T11:32:50.974Z,19.71
2019-04-25T11:33:51.025Z,19.84
2019-04-25T11:34:50.905Z,19.85
2019-04-25T11:35:50.872Z,19.89
2019-04-25T11:36:50.834Z,19.99
2019-04-25T11:37:50.814Z,20.07
2019-04-25T11:38:51.688Z,20.18
2019-04-25T11:39:50.740Z,20.03
2019-04-25T11:40:51.500Z,20.18
2019-04-25T11:41:51.330Z,20.14
2019-04-25T11:42:50.637Z,20.36
2019-04-25T11:43:50.755Z,20.32
2019-04-25T11:44:50.574Z,20.32
2019-04-25T11:45:50.540Z,20.34
2019-04-25T11:46:50.506Z,20.16
2019-04-25T11:47:50.477Z,20.21
2019-04-25T11:48:50.467Z,20.04
2019-04-25T11:49:50.409Z,20.06
2019-04-25T11:50:51.605Z,20.03
2019-04-25T11:51:50.342Z,20.03
2019-04-25T11:52:50.484Z,20.07
2019-04-25T11:53:50.276Z,20.10
2019-04-25T11:54:50.242Z,20.18
2019-04-25T11:55:51.163Z,20.31
2019-04-25T11:56:50.755Z,20.43
2019-04-25T11:57:51.344Z,20.47
2019-04-25T11:58:50.673Z,20.56
2019-04-25T11:59:50.607Z,20.51
2019-04-25T12:00:50.925Z,20.48
2019-04-25T12:01:50.010Z,20.60
2019-04-25T12:02:49.977Z,20.69
2019-04-25T12:03:50.182Z,20.70
2019-04-25T12:04:50.980Z,20.55
2019-04-25T12:05:49.882Z,20.60
2019-04-25T12:06:49.848Z,20.75
2019-04-25T12:07:50.046Z,20.72
2019-04-25T12:08:49.780Z,20.84
2019-04-25T12:09:49.970Z,20.88
2019-04-25T12:10:49.718Z,20.92
2019-04-25T12:11:49.935Z,20.74
2019-04-25T12:12:49.712Z,20.82
2019-04-25T12:13:49.677Z,20.74
2019-04-25T12:14:49.649Z,20.92
2019-04-25T12:15:49.860Z,20.93
2019-04-25T12:16:51.419Z,20.82
2019-04-25T12:17:49.551Z,20.87
2019-04-25T12:18:50.276Z,20.97
2019-04-25T12:19:49.427Z,20.93
2019-04-25T12:20:49.390Z,20.80
2019-04-25T12:21:50.248Z,20.82
2019-04-25T12:22:50.363Z,20.96
2019-04-25T12:23:49.293Z,21.02
2019-04-25T12:24:50.117Z,21.03
2019-04-25T12:25:49.821Z,21.12
2019-04-25T12:26:49.196Z,21.17
2019-04-25T12:27:51.117Z,21.17
2019-04-25T12:28:49.308Z,21.14
2019-04-25T12:29:49.916Z,21.02
2019-04-25T12:30:49.308Z,21.00
2019-04-25T12:31:49.290Z,20.92
2019-04-25T12:32:49.939Z,20.87
2019-04-25T12:33:49.980Z,20.81
2019-04-25T12:34:49.490Z,20.74
2019-04-25T12:35:50.003Z,20.55
2019-04-25T12:36:48.877Z,20.55
2019-04-25T12:37:49.808Z,20.50
2019-04-25T12:38:48.811Z,20.59
2019-04-25T12:39:48.784Z,20.55
2019-04-25T12:40:48.746Z,20.40
2019-04-25T12:41:49.355Z,20.52
2019-04-25T12:42:49.745Z,20.62
2019-04-25T12:43:48.652Z,20.51
2019-04-25T12:44:48.844Z,20.59
2019-04-25T12:45:49.251Z,20.58
2019-04-25T12:46:48.563Z,20.62
2019-04-25T12:47:48.516Z,20.43
2019-04-25T12:48:49.504Z,20.44
2019-04-25T12:49:48.658Z,20.48
2019-04-25T12:50:48.426Z,20.51
2019-04-25T12:51:48.394Z,20.50
2019-04-25T12:52:48.671Z,20.51
2019-04-25T12:53:48.325Z,20.58
2019-04-25T12:54:49.170Z,20.56
2019-04-25T12:55:48.971Z,20.52
2019-04-25T12:56:49.229Z,20.44
2019-04-25T12:57:48.621Z,20.40
2019-04-25T12:58:48.164Z,20.29
2019-04-25T12:59:49.148Z,20.18
2019-04-25T13:00:52.838Z,20.16
2019-04-25T13:01:49.379Z,20.03
2019-04-25T13:02:48.035Z,20.16
2019-04-25T13:03:48.151Z,20.10
2019-04-25T13:04:47.967Z,20.06
2019-04-25T13:05:47.938Z,20.13
2019-04-25T13:06:48.700Z,20.22
2019-04-25T13:07:47.875Z,20.21
2019-04-25T13:08:49.357Z,20.16
2019-04-25T13:09:48.316Z,20.26
2019-04-25T13:10:47.777Z,20.37
2019-04-25T13:11:47.767Z,20.52
2019-04-25T13:12:47.709Z,20.51
2019-04-25T13:13:47.679Z,20.74
2019-04-25T13:14:47.648Z,20.87
2019-04-25T13:15:47.616Z,20.99
2019-04-25T13:16:47.581Z,21.15
2019-04-25T13:17:47.548Z,21.27
2019-04-25T13:18:47.518Z,21.22
2019-04-25T13:19:47.559Z,21.36